createdAt,value
2023-02-13T00:01:07.348Z,11.45
2023-02-13T00:03:40.370Z,12.27
2023-02-13T00:06:14.336Z,14.75
2023-02-13T00:08:41.178Z,13.10
2023-02-13T00:11:14.401Z,13.60
2023-02-13T00:13:41.563Z,11.48
2023-02-13T00:16:16.435Z,11.63
2023-02-13T00:18:50.328Z,13.13
2023-02-13T00:21:17.088Z,11.65
2023-02-13T00:23:44.430Z,12.50
2023-02-13T00:26:19.549Z,15.52
2023-02-13T00:28:46.590Z,13.43
2023-02-13T00:31:16.875Z,13.20
2023-02-13T00:33:50.399Z,11.52
2023-02-13T00:36:20.488Z,12.75
2023-02-13T00:38:47.847Z,14.45
2023-02-13T00:41:23.362Z,11.88
2023-02-13T00:43:50.388Z,12.93
2023-02-13T00:46:24.494Z,13.07
2023-02-13T00:48:57.454Z,15.52
2023-02-13T00:51:24.341Z,14.98
2023-02-13T00:53:57.439Z,13.88
2023-02-13T00:56:30.404Z,12.82
2023-02-13T00:59:03.496Z,13.73
2023-02-13T01:01:36.472Z,14.00
2023-02-13T01:04:10.425Z,13.88
2023-02-13T01:06:37.200Z,12.13
2023-02-13T01:09:11.458Z,12.77
2023-02-13T01:11:44.438Z,12.23
2023-02-13T01:14:11.210Z,12.50
2023-02-13T01:16:44.458Z,12.02
2023-02-13T01:19:11.269Z,11.93
2023-02-13T01:21:44.512Z,15.07
2023-02-13T01:24:11.734Z,14.18
2023-02-13T01:26:45.510Z,14.82
2023-02-13T01:29:13.642Z,15.55
2023-02-13T01:31:47.556Z,14.13
2023-02-13T01:34:14.399Z,13.82
2023-02-13T01:36:47.463Z,14.05
2023-02-13T01:39:14.227Z,13.27
2023-02-13T01:41:41.105Z,10.95
2023-02-13T01:44:52.567Z,11.75
2023-02-13T01:47:33.580Z,11.38
2023-02-13T01:50:22.520Z,10.90
2023-02-13T01:53:14.356Z,11.52
2023-02-13T01:56:02.580Z,10.70
2023-02-13T01:58:35.644Z,10.48
2023-02-13T02:01:10.556Z,10.93
2023-02-13T02:04:06.571Z,9.98
2023-02-13T02:06:50.529Z,9.98
2023-02-13T02:09:21.367Z,9.55
2023-02-13T02:12:09.524Z,12.10
2023-02-13T02:14:36.957Z,11.45
2023-02-13T02:17:10.626Z,10.35
2023-02-13T02:20:03.175Z,11.20
2023-02-13T02:22:54.603Z,10.50
2023-02-13T02:25:58.238Z,9.80
2023-02-13T02:28:58.534Z,10.10
2023-02-13T02:31:44.095Z,9.15
2023-02-13T02:34:42.601Z,9.98
2023-02-13T02:37:24.274Z,10.93
2023-02-13T02:39:57.585Z,10.00
2023-02-13T02:42:51.569Z,10.98
2023-02-13T02:45:47.615Z,10.85
2023-02-13T02:48:59.957Z,9.98
2023-02-13T02:52:03.786Z,11.00
2023-02-13T02:55:04.603Z,10.48
2023-02-13T02:57:58.684Z,9.40
2023-02-13T03:00:45.442Z,9.65
2023-02-13T03:03:56.656Z,9.35
2023-02-13T03:06:43.677Z,9.98
2023-02-13T03:09:44.733Z,9.35
2023-02-13T03:12:45.648Z,7.88
2023-02-13T03:15:18.617Z,7.63
2023-02-13T03:18:10.842Z,8.98
2023-02-13T03:21:19.694Z,9.07
2023-02-13T03:23:53.268Z,8.93
2023-02-13T03:26:56.640Z,9.38
2023-02-13T03:30:00.305Z,8.88
2023-02-13T03:33:01.801Z,8.23
2023-02-13T03:36:11.652Z,8.48
2023-02-13T03:39:14.640Z,8.95
2023-02-13T03:44:36.966Z,9.15
2023-02-13T03:47:12.668Z,9.10
2023-02-13T03:50:13.719Z,9.95
2023-02-13T03:52:56.626Z,8.90
2023-02-13T03:55:54.717Z,10.63
2023-02-13T03:58:45.724Z,9.48
2023-02-13T04:01:21.721Z,8.52
2023-02-13T04:03:54.665Z,9.07
2023-02-13T04:06:37.689Z,7.90
2023-02-13T04:09:10.711Z,9.95
2023-02-13T04:12:04.572Z,9.13
2023-02-13T04:14:52.708Z,7.97
2023-02-13T04:17:38.704Z,8.30
2023-02-13T04:20:07.289Z,9.52
2023-02-13T04:22:40.789Z,7.68
2023-02-13T04:25:14.691Z,8.18
2023-02-13T04:27:47.802Z,9.95
2023-02-13T04:30:14.963Z,8.52
2023-02-13T04:32:48.873Z,8.60
2023-02-13T04:35:15.824Z,8.80
2023-02-13T04:37:48.729Z,8.98
2023-02-13T04:40:15.690Z,8.32
2023-02-13T04:42:42.449Z,8.60
2023-02-13T04:45:16.732Z,8.73
2023-02-13T04:47:43.904Z,8.80
2023-02-13T04:50:17.832Z,7.53
2023-02-13T04:52:44.706Z,9.27
2023-02-13T04:55:17.778Z,9.32
2023-02-13T04:57:44.509Z,8.52
2023-02-13T05:00:12.176Z,9.40
2023-02-13T05:02:45.796Z,9.77
2023-02-13T05:05:18.854Z,8.30
2023-02-13T05:07:45.962Z,8.75
2023-02-13T05:10:14.758Z,9.13
2023-02-13T05:12:47.886Z,8.65
2023-02-13T05:15:14.696Z,8.50
2023-02-13T05:17:50.810Z,9.18
2023-02-13T05:20:17.852Z,8.98
2023-02-13T05:23:14.848Z,8.45
2023-02-13T05:25:42.277Z,9.20
2023-02-13T05:28:35.928Z,9.43
2023-02-13T05:31:03.056Z,8.05
2023-02-13T05:33:36.897Z,9.32
2023-02-13T05:36:03.800Z,7.70
2023-02-13T05:38:36.923Z,8.18
2023-02-13T05:41:03.827Z,9.93
2023-02-13T05:43:30.878Z,9.88
2023-02-13T05:46:12.937Z,9.95
2023-02-13T05:48:39.814Z,9.80
2023-02-13T05:51:06.665Z,10.10
2023-02-13T05:53:42.894Z,9.43
2023-02-13T05:56:09.656Z,10.13
2023-02-13T05:58:43.939Z,9.85
2023-02-13T06:01:10.992Z,9.40
2023-02-13T06:03:37.826Z,9.80
2023-02-13T06:06:12.887Z,9.82
2023-02-13T06:08:39.759Z,9.80
2023-02-13T06:11:13.956Z,10.05
2023-02-13T06:13:40.922Z,9.48
2023-02-13T06:16:15.966Z,9.50
2023-02-13T06:18:43.057Z,10.55
2023-02-13T06:21:15.949Z,11.25
2023-02-13T06:23:43.011Z,10.10
2023-02-13T06:26:10.531Z,11.27
2023-02-13T06:28:44.042Z,11.23
2023-02-13T06:31:10.915Z,10.60
2023-02-13T06:33:44.006Z,12.82
2023-02-13T06:36:10.745Z,12.45
2023-02-13T06:38:43.947Z,12.02
2023-02-13T06:41:16.927Z,11.90
2023-02-13T06:43:43.761Z,10.73
2023-02-13T06:46:16.995Z,10.02
2023-02-13T06:48:43.714Z,10.43
2023-02-13T06:51:17.031Z,11.23
2023-02-13T06:53:49.979Z,12.35
2023-02-13T06:56:22.971Z,10.73
2023-02-13T06:58:56.057Z,12.27
2023-02-13T07:01:28.937Z,12.25
2023-02-13T07:04:01.986Z,11.63
2023-02-13T07:06:35.974Z,11.18
2023-02-13T07:09:10.049Z,11.38
2023-02-13T07:11:44.978Z,10.35
2023-02-13T07:14:18.575Z,10.80
2023-02-13T07:16:52.001Z,10.88
2023-02-13T07:19:19.034Z,10.73
2023-02-13T07:21:52.068Z,11.63
2023-02-13T07:24:25.056Z,12.60
2023-02-13T07:26:58.041Z,12.45
2023-02-13T07:29:24.944Z,12.13
2023-02-13T07:31:58.088Z,12.00
2023-02-13T07:34:24.934Z,13.60
2023-02-13T07:37:01.097Z,12.27
2023-02-13T07:39:27.890Z,11.25
2023-02-13T07:42:02.047Z,12.38
2023-02-13T07:44:28.817Z,12.23
2023-02-13T07:47:02.114Z,12.30
2023-02-13T07:49:29.022Z,14.50
2023-02-13T07:52:05.473Z,12.50
2023-02-13T07:54:32.485Z,12.32
2023-02-13T07:56:59.814Z,11.60
2023-02-13T07:59:33.075Z,12.13
2023-02-13T08:02:06.107Z,12.93
2023-02-13T08:04:39.426Z,12.43
2023-02-13T08:07:13.172Z,11.85
2023-02-13T08:09:58.540Z,12.00
2023-02-13T08:12:32.082Z,11.45
2023-02-13T08:14:58.949Z,11.75
2023-02-13T08:17:32.158Z,12.48
2023-02-13T08:19:58.989Z,11.52
2023-02-13T08:22:32.097Z,12.13
2023-02-13T08:25:05.280Z,12.77
2023-02-13T08:27:32.469Z,12.63
2023-02-13T08:30:06.233Z,13.48
2023-02-13T08:32:53.153Z,11.32
2023-02-13T08:35:28.164Z,15.10
2023-02-13T08:37:55.125Z,11.95
2023-02-13T08:40:28.185Z,11.32
2023-02-13T08:43:10.162Z,11.98
2023-02-13T08:45:37.524Z,11.68
2023-02-13T08:48:04.437Z,11.75
2023-02-13T08:50:38.166Z,12.93
2023-02-13T08:53:12.217Z,15.57
2023-02-13T08:55:45.173Z,15.45
2023-02-13T08:58:18.196Z,14.43
2023-02-13T09:00:45.089Z,15.23
2023-02-13T09:03:19.162Z,14.38
2023-02-13T09:05:46.044Z,13.90
2023-02-13T09:08:20.297Z,14.68
2023-02-13T09:10:47.199Z,15.88
2023-02-13T09:13:27.199Z,14.80
2023-02-13T09:16:00.434Z,13.68
2023-02-13T09:18:28.362Z,13.77
2023-02-13T09:21:13.194Z,12.02
2023-02-13T09:23:41.153Z,12.45
2023-02-13T09:26:20.866Z,14.10
2023-02-13T09:28:48.063Z,13.43
2023-02-13T09:31:24.443Z,14.07
2023-02-13T09:33:51.470Z,13.77
2023-02-13T09:36:27.255Z,11.57
2023-02-13T09:38:55.776Z,14.43
2023-02-13T09:41:35.225Z,13.10
2023-02-13T09:44:18.272Z,12.30
2023-02-13T09:46:51.271Z,14.55
2023-02-13T09:49:24.638Z,12.88
2023-02-13T09:52:03.306Z,12.82
2023-02-13T09:54:32.110Z,11.30
2023-02-13T09:57:14.301Z,15.05
2023-02-13T10:00:04.279Z,15.00
2023-02-13T10:02:58.244Z,14.45
2023-02-13T10:05:43.279Z,12.60
2023-02-13T10:08:10.081Z,14.68
2023-02-13T10:10:46.337Z,15.50
2023-02-13T10:13:23.600Z,14.55
2023-02-13T10:16:04.410Z,15.57
2023-02-13T10:18:57.482Z,15.38
2023-02-13T10:21:39.291Z,14.00
2023-02-13T10:24:18.070Z,14.68
2023-02-13T10:26:54.317Z,14.30
2023-02-13T10:30:12.352Z,13.35
2023-02-13T10:32:45.869Z,14.02
2023-02-13T10:35:38.296Z,12.48
2023-02-13T10:38:16.076Z,15.95
2023-02-13T10:41:14.326Z,12.18
2023-02-13T10:44:17.355Z,13.35
2023-02-13T10:46:55.982Z,13.07
2023-02-13T10:50:07.325Z,11.85
2023-02-13T10:52:46.117Z,11.20
2023-02-13T10:55:46.322Z,11.73
2023-02-13T10:58:50.345Z,13.05
2023-02-13T11:01:55.469Z,10.73
2023-02-13T11:04:23.981Z,11.90
2023-02-13T11:07:04.377Z,10.75
2023-02-13T11:09:36.965Z,11.73
2023-02-13T11:12:34.435Z,10.25
2023-02-13T11:15:03.845Z,10.80
2023-02-13T11:17:42.388Z,10.23
2023-02-13T11:20:34.763Z,13.13
2023-02-13T11:23:24.489Z,12.95
2023-02-13T11:26:32.433Z,13.00
2023-02-13T11:29:24.419Z,11.68
2023-02-13T11:32:10.508Z,12.50
2023-02-13T11:34:37.380Z,13.50
2023-02-13T11:37:19.403Z,13.02
2023-02-13T11:39:51.050Z,14.45
2023-02-13T11:42:42.599Z,13.23
2023-02-13T11:45:26.373Z,12.75
2023-02-13T11:48:01.521Z,13.00
2023-02-13T11:50:43.499Z,13.90
2023-02-13T11:53:30.453Z,11.43
2023-02-13T11:56:13.608Z,11.15
2023-02-13T11:58:48.508Z,11.45
2023-02-13T12:01:21.437Z,10.73
2023-02-13T12:04:25.487Z,12.60
2023-02-13T12:07:04.695Z,12.38
2023-02-13T12:09:38.494Z,12.25
2023-02-13T12:12:12.464Z,13.20
2023-02-13T12:14:51.486Z,10.60
2023-02-13T12:17:32.357Z,10.93
2023-02-13T12:20:00.197Z,10.80
2023-02-13T12:23:07.471Z,10.40
2023-02-13T12:25:52.191Z,11.05
2023-02-13T12:28:47.469Z,10.50
2023-02-13T12:31:31.802Z,9.38
2023-02-13T12:34:08.530Z,12.05
2023-02-13T12:36:53.917Z,11.25
2023-02-13T12:39:40.599Z,10.85
2023-02-13T12:42:37.503Z,11.05
2023-02-13T12:45:16.593Z,9.45
2023-02-13T12:48:28.676Z,12.05
2023-02-13T12:51:15.401Z,11.23
2023-02-13T12:54:00.529Z,11.18
2023-02-13T12:56:33.155Z,10.57
2023-02-13T12:59:30.614Z,9.00
2023-02-13T13:02:18.749Z,9.45
2023-02-13T13:05:26.589Z,9.30
2023-02-13T13:08:22.625Z,9.02
2023-02-13T13:11:14.610Z,9.18
2023-02-13T13:13:47.335Z,10.73
2023-02-13T13:16:23.643Z,8.73
2023-02-13T13:19:26.586Z,9.80
2023-02-13T13:22:18.831Z,7.68
2023-02-13T13:25:08.162Z,10.85
2023-02-13T13:27:50.661Z,13.00
2023-02-13T13:33:24.620Z,12.27
2023-02-13T13:36:03.896Z,9.90
2023-02-13T13:38:42.831Z,9.60
2023-02-13T13:41:25.593Z,10.02
2023-02-13T13:44:30.468Z,8.90
2023-02-13T13:47:12.652Z,8.55
2023-02-13T13:50:00.666Z,7.82
2023-02-13T13:52:36.756Z,8.98
2023-02-13T13:55:10.659Z,8.70
2023-02-13T13:57:46.695Z,7.47
2023-02-13T14:00:14.478Z,7.68
2023-02-13T14:02:53.686Z,8.23
2023-02-13T14:05:30.790Z,10.57
2023-02-13T14:08:10.732Z,11.35
2023-02-13T14:10:57.751Z,11.48
2023-02-13T14:13:44.684Z,10.60
2023-02-13T14:16:12.310Z,10.27
2023-02-13T14:18:52.697Z,11.55
2023-02-13T14:21:23.776Z,10.82
2023-02-13T14:23:59.701Z,9.27
2023-02-13T14:26:34.392Z,11.90
2023-02-13T14:29:18.680Z,11.57
2023-02-13T14:31:57.201Z,12.80
2023-02-13T14:34:36.667Z,10.00
2023-02-13T14:37:21.012Z,11.38
2023-02-13T14:40:21.708Z,9.77
2023-02-13T14:42:56.510Z,9.32
2023-02-13T14:45:34.737Z,9.00
2023-02-13T14:48:13.765Z,10.05
2023-02-13T14:50:58.983Z,7.97
2023-02-13T14:54:00.047Z,9.23
2023-02-13T14:56:34.760Z,9.02
2023-02-13T14:59:17.771Z,6.35
2023-02-13T15:02:03.752Z,8.73
2023-02-13T15:04:45.824Z,9.10
2023-02-13T15:07:29.937Z,10.05
2023-02-13T15:10:11.737Z,11.05
2023-02-13T15:12:38.634Z,9.50
2023-02-13T15:15:33.819Z,9.77
2023-02-13T15:18:08.680Z,9.90
2023-02-13T15:20:44.779Z,8.95
2023-02-13T15:23:32.545Z,8.52
2023-02-13T15:26:06.812Z,9.45
2023-02-13T15:28:35.573Z,11.45
2023-02-13T15:31:15.878Z,11.25
2023-02-13T15:33:46.441Z,10.93
2023-02-13T15:36:25.867Z,11.15
2023-02-13T15:39:26.793Z,11.43
2023-02-13T15:42:07.120Z,10.55
2023-02-13T15:44:39.712Z,11.27
2023-02-13T15:47:20.790Z,10.68
2023-02-13T15:49:50.360Z,11.00
2023-02-13T15:52:36.010Z,10.38
2023-02-13T15:55:03.300Z,10.07
2023-02-13T15:57:33.042Z,9.95
2023-02-13T16:00:07.911Z,9.82
2023-02-13T16:02:49.889Z,11.60
2023-02-13T16:05:26.503Z,9.52
2023-02-13T16:08:31.105Z,8.88
2023-02-13T16:11:16.149Z,8.68
2023-02-13T16:14:07.851Z,12.02
2023-02-13T16:16:50.930Z,12.15
2023-02-13T16:19:46.979Z,10.70
2023-02-13T16:22:16.631Z,12.75
2023-02-13T16:24:58.861Z,10.45
2023-02-13T16:27:34.846Z,9.73
2023-02-13T16:30:11.929Z,9.15
2023-02-13T16:32:38.937Z,9.13
2023-02-13T16:35:46.136Z,9.05
2023-02-13T16:38:33.014Z,8.02
2023-02-13T16:41:28.933Z,8.45
2023-02-13T16:44:06.945Z,7.43
2023-02-13T16:46:40.739Z,7.80
2023-02-13T16:49:16.898Z,7.55
2023-02-13T16:52:07.838Z,7.20
2023-02-13T16:55:16.078Z,7.10
2023-02-13T16:57:44.390Z,7.30
2023-02-13T17:00:28.960Z,8.27
2023-02-13T17:02:55.787Z,7.97
2023-02-13T17:05:25.213Z,8.00
2023-02-13T17:08:03.044Z,7.45
2023-02-13T17:10:33.589Z,7.85
2023-02-13T17:13:17.918Z,7.18
2023-02-13T17:15:47.727Z,9.68
2023-02-13T17:18:21.089Z,9.32
2023-02-13T17:20:49.559Z,10.25
2023-02-13T17:23:20.808Z,9.55
2023-02-13T17:25:56.054Z,10.73
2023-02-13T17:28:26.859Z,9.55
2023-02-13T17:31:03.111Z,9.93
2023-02-13T17:33:32.269Z,9.85
2023-02-13T17:35:59.177Z,11.10
2023-02-13T17:38:31.926Z,9.93
2023-02-13T17:40:59.205Z,11.25
2023-02-13T17:43:34.308Z,11.10
2023-02-13T17:46:01.580Z,10.43
2023-02-13T17:48:28.441Z,9.32
2023-02-13T17:51:02.137Z,10.50
2023-02-13T17:53:30.222Z,11.40
2023-02-13T17:55:57.085Z,11.27
2023-02-13T17:58:31.092Z,11.32
2023-02-13T18:00:58.416Z,10.60
2023-02-13T18:03:25.475Z,12.85
2023-02-13T18:06:01.059Z,11.63
2023-02-13T18:08:27.938Z,11.70
2023-02-13T18:11:02.031Z,11.30
2023-02-13T18:13:28.943Z,10.70
2023-02-13T18:15:56.097Z,12.05
2023-02-13T18:18:30.084Z,12.25
2023-02-13T18:20:57.500Z,12.18
2023-02-13T18:23:24.738Z,12.88
2023-02-13T18:25:58.039Z,13.18
2023-02-13T18:28:25.061Z,12.65
2023-02-13T18:30:59.311Z,12.85
2023-02-13T18:33:33.317Z,12.50
2023-02-13T18:36:04.463Z,12.82
2023-02-13T18:38:38.065Z,12.50
2023-02-13T18:41:05.784Z,13.10
2023-02-13T18:43:40.064Z,12.38
2023-02-13T18:46:06.984Z,13.30
2023-02-13T18:48:34.412Z,12.68
2023-02-13T18:51:08.460Z,11.70
2023-02-13T18:53:35.378Z,11.30
2023-02-13T18:56:16.254Z,12.23
2023-02-13T18:58:43.106Z,13.15
2023-02-13T19:01:26.191Z,12.10
2023-02-13T19:03:54.423Z,12.20
2023-02-13T19:06:23.789Z,13.52
2023-02-13T19:08:57.257Z,13.13
2023-02-13T19:11:26.443Z,14.63
2023-02-13T19:13:55.220Z,15.05
2023-02-13T19:16:29.157Z,14.85
2023-02-13T19:19:05.169Z,13.50
2023-02-13T19:21:34.227Z,13.77
2023-02-13T19:24:03.717Z,13.68
2023-02-13T19:26:37.447Z,14.23
2023-02-13T19:29:04.388Z,15.73
2023-02-13T19:31:32.942Z,12.80
2023-02-13T19:34:07.188Z,13.95
2023-02-13T19:36:34.048Z,13.93
2023-02-13T19:39:13.468Z,15.65
2023-02-13T19:41:44.133Z,15.77
2023-02-13T19:44:11.380Z,14.77
2023-02-13T19:46:45.332Z,15.27
2023-02-13T19:49:12.159Z,14.88
2023-02-13T19:51:42.007Z,15.20
2023-02-13T19:54:17.250Z,15.80
2023-02-13T19:56:51.347Z,14.60
2023-02-13T19:59:18.129Z,13.43
2023-02-13T20:01:45.737Z,12.50
2023-02-13T20:04:19.424Z,12.35
2023-02-13T20:06:46.223Z,13.05
2023-02-13T20:09:14.084Z,14.02
2023-02-13T20:11:48.409Z,13.75
2023-02-13T20:14:15.409Z,11.05
2023-02-13T20:16:45.478Z,12.15
2023-02-13T20:19:20.204Z,13.50
2023-02-13T20:21:53.228Z,12.73
2023-02-13T20:24:20.436Z,13.35
2023-02-13T20:26:47.453Z,15.80
2023-02-13T20:29:21.544Z,14.38
2023-02-13T20:31:48.447Z,13.13
2023-02-13T20:34:15.372Z,15.15
2023-02-13T20:36:48.248Z,14.80
2023-02-13T20:39:15.165Z,15.30
2023-02-13T20:41:48.221Z,14.82
2023-02-13T20:44:23.118Z,14.57
2023-02-13T20:46:51.020Z,13.50
2023-02-13T20:49:21.785Z,14.48
2023-02-13T20:51:55.567Z,13.60
2023-02-13T20:54:22.575Z,14.00
2023-02-13T20:56:49.374Z,14.65
2023-02-13T20:59:22.289Z,14.07
2023-02-13T21:01:57.296Z,16.38
2023-02-13T21:04:30.327Z,14.48
2023-02-13T21:06:57.190Z,16.30
2023-02-13T21:09:30.292Z,15.10
2023-02-13T21:11:57.006Z,13.65
2023-02-13T21:14:30.310Z,15.93
2023-02-13T21:17:03.280Z,14.68
2023-02-13T21:19:37.295Z,14.90
2023-02-13T21:22:13.271Z,13.30
2023-02-13T21:24:48.473Z,13.82
2023-02-13T21:27:15.308Z,12.98
2023-02-13T21:29:42.027Z,12.32
2023-02-13T21:32:19.355Z,14.55
2023-02-13T21:34:46.203Z,14.18
2023-02-13T21:37:13.144Z,14.43
2023-02-13T21:39:46.471Z,16.52
2023-02-13T21:42:14.651Z,16.80
2023-02-13T21:44:41.493Z,16.08
2023-02-13T21:47:14.353Z,14.45
2023-02-13T21:49:47.512Z,18.65
2023-02-13T21:52:14.345Z,15.50
2023-02-13T21:54:41.217Z,16.20
2023-02-13T21:57:14.371Z,15.68
2023-02-13T21:59:41.206Z,14.95
2023-02-13T22:02:16.485Z,15.50
2023-02-13T22:04:43.543Z,14.95
2023-02-13T22:07:23.405Z,13.77
2023-02-13T22:09:50.372Z,13.75
2023-02-13T22:12:17.265Z,14.40
2023-02-13T22:14:50.385Z,13.75
2023-02-13T22:17:22.325Z,14.13
2023-02-13T22:19:55.395Z,13.90
2023-02-13T22:22:29.716Z,13.57
2023-02-13T22:24:56.557Z,14.80
2023-02-13T22:27:23.307Z,13.35
2023-02-13T22:29:57.531Z,13.27
2023-02-13T22:32:24.359Z,15.82
2023-02-13T22:34:57.450Z,15.95
2023-02-13T22:37:24.473Z,14.63
2023-02-13T22:39:57.443Z,14.93
2023-02-13T22:42:24.250Z,16.02
2023-02-13T22:44:57.525Z,15.38
2023-02-13T22:47:31.463Z,16.40
2023-02-13T22:50:04.450Z,15.00
2023-02-13T22:52:37.421Z,14.55
2023-02-13T22:55:04.468Z,14.13
2023-02-13T22:57:37.475Z,15.80
2023-02-13T23:00:10.210Z,16.30
2023-02-13T23:02:43.525Z,15.20
2023-02-13T23:05:10.797Z,17.65
2023-02-13T23:07:49.489Z,16.08
2023-02-13T23:10:16.337Z,17.60
2023-02-13T23:12:45.619Z,15.77
2023-02-13T23:15:21.502Z,17.52
2023-02-13T23:18:06.892Z,20.08
2023-02-13T23:20:40.476Z,18.70
2023-02-13T23:23:10.812Z,17.17
2023-02-13T23:25:44.556Z,19.45
2023-02-13T23:28:20.577Z,19.10
2023-02-13T23:30:53.581Z,18.10
2023-02-13T23:33:26.585Z,16.50
2023-02-13T23:36:00.553Z,18.20
2023-02-13T23:38:27.529Z,18.70
2023-02-13T23:41:00.745Z,18.17
2023-02-13T23:43:27.661Z,17.13
2023-02-13T23:45:54.521Z,17.13
2023-02-13T23:48:27.588Z,16.85
2023-02-13T23:50:54.356Z,15.93
2023-02-13T23:53:27.592Z,17.05
2023-02-13T23:56:01.628Z,17.40
2023-02-13T23:58:28.420Z,17.10
